createdAt,value
2022-12-06T00:00:12.319Z,1.48
2022-12-06T00:10:13.938Z,1.25
2022-12-06T00:20:15.508Z,1.38
2022-12-06T00:30:17.337Z,1.00
2022-12-06T00:40:18.766Z,1.23
2022-12-06T00:50:20.247Z,1.00
2022-12-06T01:00:21.776Z,1.10
2022-12-06T01:10:23.369Z,1.08
2022-12-06T01:20:24.825Z,1.30
2022-12-06T01:30:26.405Z,1.10
2022-12-06T01:40:27.888Z,1.10
2022-12-06T01:50:32.686Z,0.90
2022-12-06T02:00:34.693Z,1.07
2022-12-06T02:10:37.171Z,0.93
2022-12-06T02:20:45.984Z,0.70
2022-12-06T02:30:55.831Z,0.98
2022-12-06T02:41:00.347Z,0.90
2022-12-06T02:51:06.531Z,0.95
2022-12-06T03:01:14.896Z,0.90
2022-12-06T03:11:16.736Z,1.00
2022-12-06T03:21:38.565Z,0.75
2022-12-06T03:31:41.224Z,0.65
2022-12-06T03:41:46.435Z,0.85
2022-12-06T03:51:48.508Z,0.82
2022-12-06T04:01:49.972Z,0.73
2022-12-06T04:11:51.511Z,0.82
2022-12-06T04:22:11.472Z,0.50
2022-12-06T04:32:31.406Z,0.68
2022-12-06T04:42:51.567Z,0.60
2022-12-06T04:52:53.047Z,0.60
2022-12-06T05:02:54.562Z,0.80
2022-12-06T05:12:56.035Z,0.50
2022-12-06T05:22:57.467Z,0.60
2022-12-06T05:32:58.896Z,0.60
2022-12-06T05:43:00.328Z,0.70
2022-12-06T05:53:02.299Z,0.60
2022-12-06T06:03:04.056Z,0.30
2022-12-06T06:13:05.645Z,0.68
2022-12-06T06:23:07.134Z,0.40
2022-12-06T06:33:08.669Z,0.60
2022-12-06T06:43:20.092Z,0.50
2022-12-06T06:53:21.597Z,0.40
2022-12-06T07:03:23.952Z,0.70
2022-12-06T07:13:27.160Z,0.40
2022-12-06T07:23:29.060Z,0.40
2022-12-06T07:33:30.456Z,0.73
2022-12-06T07:43:50.674Z,0.50
2022-12-06T07:53:52.204Z,0.75
2022-12-06T08:03:55.720Z,1.23
2022-12-06T08:13:58.355Z,0.60
2022-12-06T08:23:59.818Z,0.82
2022-12-06T08:34:02.152Z,0.63
2022-12-06T08:44:04.162Z,0.50
2022-12-06T08:54:07.279Z,0.50
2022-12-06T09:04:10.850Z,0.40
2022-12-06T09:14:20.959Z,0.40
2022-12-06T09:24:23.585Z,0.55
2022-12-06T09:34:25.157Z,0.38
2022-12-06T09:44:52.842Z,0.30
2022-12-06T09:55:15.752Z,0.43
2022-12-06T10:05:39.131Z,0.60
2022-12-06T10:15:51.599Z,0.43
2022-12-06T10:26:16.946Z,0.45
2022-12-06T10:36:42.620Z,0.40
2022-12-06T10:47:03.907Z,0.30
2022-12-06T10:57:10.891Z,0.38
2022-12-06T11:07:19.683Z,0.28
2022-12-06T11:17:32.732Z,0.50
2022-12-06T11:27:40.148Z,0.30
2022-12-06T11:37:44.377Z,0.50
2022-12-06T11:47:46.293Z,0.50
2022-12-06T11:57:56.229Z,0.35
2022-12-06T12:08:16.309Z,0.25
2022-12-06T12:18:28.223Z,0.40
2022-12-06T12:28:34.953Z,0.20
2022-12-06T12:38:39.455Z,0.28
2022-12-06T12:48:43.223Z,0.33
2022-12-06T12:58:47.969Z,0.30
2022-12-06T13:08:49.616Z,0.30
2022-12-06T13:18:56.204Z,0.22
2022-12-06T13:29:05.319Z,0.38
2022-12-06T13:39:30.425Z,0.30
2022-12-06T13:49:48.667Z,0.40
2022-12-06T13:59:50.713Z,0.30
2022-12-06T14:09:52.264Z,0.40
2022-12-06T14:19:54.123Z,0.30
2022-12-06T14:30:25.658Z,0.20
2022-12-06T14:40:45.984Z,0.30
2022-12-06T14:50:52.283Z,0.20
2022-12-06T15:01:00.951Z,0.10
2022-12-06T15:11:45.757Z,0.20
2022-12-06T15:21:51.194Z,0.20
2022-12-06T15:41:55.721Z,0.20
2022-12-06T15:51:57.202Z,0.20
2022-12-06T16:01:58.664Z,0.30
2022-12-06T16:12:00.111Z,0.25
2022-12-06T16:22:01.533Z,0.30
2022-12-06T16:32:03.070Z,0.30
2022-12-06T16:42:05.186Z,0.50
2022-12-06T16:52:06.621Z,0.30
2022-12-06T17:02:28.971Z,0.60
2022-12-06T17:12:30.648Z,0.70
2022-12-06T17:22:32.245Z,0.50
2022-12-06T17:32:33.830Z,0.82
2022-12-06T17:42:53.938Z,0.57
2022-12-06T17:52:55.383Z,0.63
2022-12-06T18:02:56.964Z,0.70
2022-12-06T18:13:01.486Z,0.90
2022-12-06T18:23:04.321Z,0.68
2022-12-06T18:33:05.809Z,0.65
2022-12-06T18:43:07.289Z,0.55
2022-12-06T18:53:10.897Z,0.70
2022-12-06T19:03:13.228Z,0.57
2022-12-06T19:13:14.759Z,0.65
2022-12-06T19:23:16.250Z,1.40
2022-12-06T19:33:17.830Z,0.90
2022-12-06T19:43:44.779Z,0.57
2022-12-06T19:53:46.728Z,0.88
2022-12-06T20:03:48.195Z,0.43
2022-12-06T20:13:49.645Z,0.50
2022-12-06T20:23:51.193Z,0.80
2022-12-06T20:33:57.904Z,0.68
2022-12-06T20:44:01.266Z,0.70
2022-12-06T20:54:05.087Z,0.40
2022-12-06T21:04:07.559Z,0.50
2022-12-06T21:14:12.310Z,0.70
2022-12-06T21:24:16.426Z,0.40
2022-12-06T21:34:17.955Z,0.60
2022-12-06T21:44:20.148Z,0.55
2022-12-06T21:54:21.552Z,0.70
2022-12-06T22:04:23.254Z,0.50
2022-12-06T22:14:24.801Z,0.65
2022-12-06T22:24:26.268Z,0.60
2022-12-06T22:34:27.741Z,0.50
2022-12-06T22:44:29.127Z,0.50
2022-12-06T22:54:30.644Z,0.43
2022-12-06T23:04:32.213Z,0.57
2022-12-06T23:14:33.739Z,0.40
2022-12-06T23:24:35.200Z,0.50
2022-12-06T23:34:37.734Z,0.40
2022-12-06T23:44:40.024Z,0.40
2022-12-06T23:54:41.582Z,0.40
